Colfax, Washington
Current Conditions -  °F | °C
As of 9:53 PM on Saturday 25 Oct 2014 (Local Time) from KPUW Reporting Station
Few Clouds Few Clouds  
Wind Chill: 56°   Ceiling: Unl
Heat Index: 56°   Visibility: 10mi
Dew Point: 41°   Wind: 12mph
Humidity: 57%   Direction: 200°SSW
Pressure: 29.67"   Gusts: NA
Location:  46.88°N, 117.36°W
Report Text: KPUW 260453Z AUTO 20010KT 10SM FEW065 13/05 A2967 RMK AO2 SLP044 T01330050
Loading
Personal Weather Stations






























Interactive Weather Map
Tropical Storm Tracking
New forecast layout! Learn more

10-Day Weather Forecast

Advertisements
Track Severe Weather on mobile